createdAt,value
2018-08-25T00:00:47.826Z,13.88
2018-08-25T00:01:48.084Z,13.86
2018-08-25T00:02:48.071Z,13.83
2018-08-25T00:03:47.809Z,13.86
2018-08-25T00:04:47.803Z,13.76
2018-08-25T00:05:47.793Z,13.83
2018-08-25T00:06:47.787Z,13.79
2018-08-25T00:07:47.783Z,13.68
2018-08-25T00:08:48.033Z,13.72
2018-08-25T00:09:47.774Z,13.7
2018-08-25T00:10:47.762Z,13.62
2018-08-25T00:11:48.017Z,13.69
2018-08-25T00:12:47.754Z,13.68
2018-08-25T00:13:47.742Z,13.69
2018-08-25T00:14:47.991Z,13.73
2018-08-25T00:15:47.992Z,13.75
2018-08-25T00:16:47.722Z,13.78
2018-08-25T00:17:47.716Z,13.81
2018-08-25T00:18:47.977Z,13.83
2018-08-25T00:19:47.705Z,13.84
2018-08-25T00:20:47.959Z,13.9
2018-08-25T00:21:47.693Z,13.83
2018-08-25T00:22:47.684Z,13.83
2018-08-25T00:23:47.680Z,13.87
2018-08-25T00:24:47.933Z,13.78
2018-08-25T00:25:47.925Z,13.83
2018-08-25T00:26:47.918Z,13.78
2018-08-25T00:27:47.910Z,13.81
2018-08-25T00:28:47.910Z,13.78
2018-08-25T00:29:47.905Z,13.78
2018-08-25T00:30:47.894Z,13.9
2018-08-25T00:31:47.640Z,13.75
2018-08-25T00:32:47.623Z,13.84
2018-08-25T00:33:47.878Z,13.79
2018-08-25T00:34:47.618Z,13.83
2018-08-25T00:35:47.863Z,13.81
2018-08-25T00:36:47.597Z,13.81
2018-08-25T00:37:47.591Z,13.84
2018-08-25T00:38:47.843Z,13.79
2018-08-25T00:39:47.577Z,13.87
2018-08-25T00:40:47.570Z,13.87
2018-08-25T00:41:47.829Z,13.87
2018-08-25T00:42:47.819Z,13.78
2018-08-25T00:43:47.552Z,13.83
2018-08-25T00:44:47.805Z,13.9
2018-08-25T00:45:47.537Z,13.84
2018-08-25T00:46:47.790Z,13.81
2018-08-25T00:47:47.335Z,13.75
2018-08-25T00:48:47.520Z,13.84
2018-08-25T00:49:47.779Z,13.75
2018-08-25T00:50:47.765Z,13.79
2018-08-25T00:51:47.499Z,13.81
2018-08-25T00:52:47.753Z,13.87
2018-08-25T00:53:47.488Z,13.73
2018-08-25T00:54:47.740Z,13.81
2018-08-25T00:55:47.736Z,13.75
2018-08-25T00:56:47.730Z,13.69
2018-08-25T00:57:47.729Z,13.72
2018-08-25T00:58:47.768Z,13.68
2018-08-25T00:59:47.716Z,13.65
2018-08-25T01:00:47.442Z,13.7
2018-08-25T01:01:47.437Z,13.69
2018-08-25T01:02:47.686Z,13.66
2018-08-25T01:03:47.422Z,13.68
2018-08-25T01:04:47.678Z,13.66
2018-08-25T01:05:47.408Z,13.7
2018-08-25T01:06:47.661Z,13.72
2018-08-25T01:07:47.653Z,13.72
2018-08-25T01:08:47.133Z,13.72
2018-08-25T01:09:47.642Z,13.7
2018-08-25T01:10:47.635Z,13.78
2018-08-25T01:11:47.373Z,13.83
2018-08-25T01:12:47.624Z,13.73
2018-08-25T01:13:47.357Z,13.79
2018-08-25T01:14:47.613Z,13.72
2018-08-25T01:15:47.610Z,13.62
2018-08-25T01:16:47.593Z,13.69
2018-08-25T01:17:47.589Z,13.75
2018-08-25T01:18:47.324Z,13.63
2018-08-25T01:19:47.322Z,13.7
2018-08-25T01:20:47.568Z,13.72
2018-08-25T01:21:47.574Z,13.7
2018-08-25T01:22:47.555Z,13.68
2018-08-25T01:23:47.294Z,13.65
2018-08-25T01:24:47.031Z,13.69
2018-08-25T01:25:47.539Z,13.55
2018-08-25T01:26:47.533Z,13.53
2018-08-25T01:27:47.264Z,13.5
2018-08-25T01:28:47.514Z,13.47
2018-08-25T01:29:47.534Z,13.53
2018-08-25T01:30:47.509Z,13.4
2018-08-25T01:31:47.497Z,13.47
2018-08-25T01:32:47.238Z,13.42
2018-08-25T01:33:47.482Z,13.44
2018-08-25T01:34:47.481Z,13.44
2018-08-25T01:35:47.218Z,13.47
2018-08-25T01:36:47.464Z,13.45
2018-08-25T01:37:47.460Z,13.44
2018-08-25T01:38:47.192Z,13.42
2018-08-25T01:39:47.444Z,13.42
2018-08-25T01:40:47.179Z,13.48
2018-08-25T01:41:47.425Z,13.5
2018-08-25T01:42:47.431Z,13.47
2018-08-25T01:43:47.421Z,13.42
2018-08-25T01:44:47.405Z,13.35
2018-08-25T01:45:47.399Z,13.44
2018-08-25T01:46:47.397Z,13.35
2018-08-25T01:47:47.386Z,13.4
2018-08-25T01:48:47.119Z,13.37
2018-08-25T01:49:47.373Z,13.4
2018-08-25T01:50:47.109Z,13.39
2018-08-25T01:51:47.102Z,13.37
2018-08-25T01:52:46.836Z,13.31
2018-08-25T01:53:47.345Z,13.29
2018-08-25T01:54:47.083Z,13.29
2018-08-25T01:55:47.326Z,13.29
2018-08-25T01:56:47.320Z,13.31
2018-08-25T01:57:47.064Z,13.36
2018-08-25T01:58:47.308Z,13.21
2018-08-25T01:59:47.047Z,13.27
2018-08-25T02:00:47.040Z,13.27
2018-08-25T02:01:47.291Z,13.21
2018-08-25T02:02:47.662Z,13.21
2018-08-25T02:03:47.017Z,13.27
2018-08-25T02:04:47.274Z,13.25
2018-08-25T02:05:47.262Z,13.11
2018-08-25T02:06:47.000Z,13.1
2018-08-25T02:07:46.734Z,13.16
2018-08-25T02:08:47.242Z,13.1
2018-08-25T02:09:46.983Z,13.06
2018-08-25T02:10:46.976Z,13.1
2018-08-25T02:11:47.231Z,12.98
2018-08-25T02:12:46.716Z,12.96
2018-08-25T02:13:46.951Z,12.96
2018-08-25T02:14:47.212Z,12.99
2018-08-25T02:15:47.203Z,12.98
2018-08-25T02:16:47.186Z,12.92
2018-08-25T02:17:46.669Z,12.94
2018-08-25T02:18:47.176Z,12.96
2018-08-25T02:19:46.911Z,12.92
2018-08-25T02:20:46.646Z,12.94
2018-08-25T02:21:46.640Z,12.84
2018-08-25T02:22:47.154Z,12.89
2018-08-25T02:23:47.142Z,12.86
2018-08-25T02:24:47.137Z,12.88
2018-08-25T02:25:46.871Z,12.84
2018-08-25T02:26:47.115Z,12.84
2018-08-25T02:27:46.602Z,12.81
2018-08-25T02:28:47.106Z,12.76
2018-08-25T02:29:47.096Z,12.76
2018-08-25T02:30:47.091Z,12.76
2018-08-25T02:31:47.082Z,12.77
2018-08-25T02:32:47.080Z,12.78
2018-08-25T02:33:47.084Z,12.81
2018-08-25T02:34:47.060Z,12.73
2018-08-25T02:35:47.051Z,12.74
2018-08-25T02:36:47.050Z,12.73
2018-08-25T02:37:46.783Z,12.74
2018-08-25T02:38:47.354Z,12.71
2018-08-25T02:39:46.766Z,12.7
2018-08-25T02:40:47.021Z,12.69
2018-08-25T02:41:46.756Z,12.69
2018-08-25T02:42:47.014Z,12.73
2018-08-25T02:43:46.741Z,12.61
2018-08-25T02:44:46.993Z,12.62
2018-08-25T02:45:46.728Z,12.55
2018-08-25T02:46:46.985Z,12.47
2018-08-25T02:47:46.972Z,12.53
2018-08-25T02:48:46.704Z,12.48
2018-08-25T02:49:46.961Z,12.53
2018-08-25T02:50:46.689Z,12.44
2018-08-25T02:51:46.426Z,12.43
2018-08-25T02:52:46.936Z,12.47
2018-08-25T02:53:46.922Z,12.41
2018-08-25T02:54:46.917Z,12.47
2018-08-25T02:55:46.914Z,12.26
2018-08-25T02:56:46.905Z,12.34
2018-08-25T02:57:46.641Z,12.29
2018-08-25T02:58:46.891Z,12.34
2018-08-25T02:59:46.625Z,12.28
2018-08-25T03:00:46.879Z,12.28
2018-08-25T03:01:46.874Z,12.23
2018-08-25T03:02:46.350Z,12.16
2018-08-25T03:03:46.851Z,12.19
2018-08-25T03:04:46.854Z,12.13
2018-08-25T03:05:46.326Z,12.16
2018-08-25T03:06:46.570Z,12.01
2018-08-25T03:07:46.819Z,12.07
2018-08-25T03:08:46.816Z,12
2018-08-25T03:09:46.296Z,12.01
2018-08-25T03:10:46.541Z,12.04
2018-08-25T03:11:46.796Z,12
2018-08-25T03:12:46.830Z,12
2018-08-25T03:13:46.663Z,12
2018-08-25T03:14:46.516Z,12.03
2018-08-25T03:15:46.509Z,11.94
2018-08-25T03:16:46.507Z,11.94
2018-08-25T03:17:46.753Z,11.95
2018-08-25T03:18:46.487Z,11.85
2018-08-25T03:19:46.731Z,11.78
2018-08-25T03:20:46.728Z,11.91
2018-08-25T03:21:46.719Z,11.81
2018-08-25T03:22:46.724Z,11.78
2018-08-25T03:23:46.716Z,11.81
2018-08-25T03:24:46.437Z,11.68
2018-08-25T03:25:46.692Z,11.68
2018-08-25T03:26:46.429Z,11.71
2018-08-25T03:27:46.157Z,11.66
2018-08-25T03:28:46.668Z,11.67
2018-08-25T03:29:46.405Z,11.67
2018-08-25T03:30:46.392Z,11.64
2018-08-25T03:31:46.389Z,11.7
2018-08-25T03:32:46.633Z,11.68
2018-08-25T03:33:46.627Z,11.61
2018-08-25T03:34:46.632Z,11.66
2018-08-25T03:35:46.609Z,11.6
2018-08-25T03:36:46.603Z,11.64
2018-08-25T03:37:46.634Z,11.71
2018-08-25T03:38:46.589Z,11.66
2018-08-25T03:39:46.581Z,11.68
2018-08-25T03:40:46.314Z,11.76
2018-08-25T03:41:46.561Z,11.75
2018-08-25T03:42:46.042Z,11.81
2018-08-25T03:43:46.552Z,11.95
2018-08-25T03:44:46.288Z,11.86
2018-08-25T03:45:46.533Z,11.79
2018-08-25T03:46:46.525Z,11.91
2018-08-25T03:47:46.518Z,11.94
2018-08-25T03:48:46.507Z,11.91
2018-08-25T03:49:46.499Z,12.05
2018-08-25T03:50:46.491Z,12.07
2018-08-25T03:51:46.487Z,12.08
2018-08-25T03:52:46.221Z,12.11
2018-08-25T03:53:46.209Z,12.16
2018-08-25T03:54:46.459Z,12.23
2018-08-25T03:55:46.197Z,12.25
2018-08-25T03:56:46.189Z,12.26
2018-08-25T03:57:46.443Z,12.31
2018-08-25T03:58:45.913Z,12.33
2018-08-25T03:59:46.166Z,12.34
2018-08-25T04:00:46.154Z,12.34
2018-08-25T04:01:46.327Z,12.36
2018-08-25T04:02:46.395Z,12.36
2018-08-25T04:03:46.140Z,12.33
2018-08-25T04:04:46.382Z,12.31
2018-08-25T04:05:46.372Z,12.37
2018-08-25T04:06:46.113Z,12.33
2018-08-25T04:07:45.853Z,12.29
2018-08-25T04:08:46.410Z,12.23
2018-08-25T04:09:46.341Z,12.31
2018-08-25T04:10:46.348Z,12.26
2018-08-25T04:11:46.329Z,12.28
2018-08-25T04:12:46.336Z,12.2
2018-08-25T04:13:46.057Z,12.18
2018-08-25T04:14:46.149Z,12.13
2018-08-25T04:15:46.039Z,12.11
2018-08-25T04:16:45.774Z,12.11
2018-08-25T04:17:46.280Z,12.11
2018-08-25T04:18:46.278Z,12.07
2018-08-25T04:19:46.270Z,12.05
2018-08-25T04:20:46.267Z,12.03
2018-08-25T04:21:46.261Z,12.03
2018-08-25T04:22:46.321Z,12.08
2018-08-25T04:23:45.726Z,12.1
2018-08-25T04:24:45.969Z,12.08
2018-08-25T04:25:45.961Z,12
2018-08-25T04:26:46.213Z,12
2018-08-25T04:27:46.201Z,12.03
2018-08-25T04:28:46.206Z,12.04
2018-08-25T04:29:46.183Z,12.05
2018-08-25T04:30:46.203Z,12.1
2018-08-25T04:31:46.170Z,12.19
2018-08-25T04:32:46.168Z,12.2
2018-08-25T04:33:46.158Z,12.15
2018-08-25T04:34:45.893Z,12.2
2018-08-25T04:35:46.199Z,12.19
2018-08-25T04:36:45.888Z,12.18
2018-08-25T04:37:45.881Z,12.18
2018-08-25T04:38:45.861Z,12.13
2018-08-25T04:39:46.108Z,12.15
2018-08-25T04:40:45.846Z,12.19
2018-08-25T04:41:46.099Z,12.2
2018-08-25T04:42:45.832Z,12.16
2018-08-25T04:43:46.087Z,12.16
2018-08-25T04:44:45.808Z,12.18
2018-08-25T04:45:45.806Z,12.16
2018-08-25T04:46:46.052Z,12.19
2018-08-25T04:47:45.531Z,12.22
2018-08-25T04:48:45.783Z,12.22
2018-08-25T04:49:45.777Z,12.22
2018-08-25T04:50:45.771Z,12.29
2018-08-25T04:51:45.758Z,12.29
2018-08-25T04:52:45.764Z,12.34
2018-08-25T04:53:46.009Z,12.4
2018-08-25T04:54:45.741Z,12.43
2018-08-25T04:55:45.983Z,12.43
2018-08-25T04:56:45.972Z,12.44
2018-08-25T04:57:45.966Z,12.47
2018-08-25T04:58:45.959Z,12.56
2018-08-25T04:59:45.697Z,12.63
2018-08-25T05:00:45.947Z,12.65
2018-08-25T05:01:46.107Z,12.58
2018-08-25T05:02:45.928Z,12.61
2018-08-25T05:03:45.923Z,12.66
2018-08-25T05:04:45.916Z,12.66
2018-08-25T05:05:45.653Z,12.66
2018-08-25T05:06:45.654Z,12.65
2018-08-25T05:07:45.808Z,12.74
2018-08-25T05:08:45.632Z,12.69
2018-08-25T05:09:45.873Z,12.74
2018-08-25T05:10:45.871Z,12.77
2018-08-25T05:11:45.863Z,12.7
2018-08-25T05:12:45.336Z,12.77
2018-08-25T05:13:45.856Z,12.76
2018-08-25T05:14:45.588Z,12.77
2018-08-25T05:15:45.834Z,12.81
2018-08-25T05:16:45.823Z,12.91
2018-08-25T05:17:45.815Z,12.88
2018-08-25T05:18:45.599Z,12.8
2018-08-25T05:19:45.541Z,12.86
2018-08-25T05:20:45.536Z,12.91
2018-08-25T05:21:45.578Z,12.92
2018-08-25T05:22:45.780Z,12.94
2018-08-25T05:23:45.515Z,12.99
2018-08-25T05:24:45.764Z,12.96
2018-08-25T05:25:45.499Z,12.92
2018-08-25T05:26:45.746Z,12.96
2018-08-25T05:27:45.752Z,13.06
2018-08-25T05:28:45.738Z,13.01
2018-08-25T05:29:45.720Z,12.94
2018-08-25T05:30:45.721Z,12.92
2018-08-25T05:31:45.710Z,12.95
2018-08-25T05:32:45.706Z,12.96
2018-08-25T05:33:45.439Z,13.01
2018-08-25T05:34:45.684Z,13.07
2018-08-25T05:35:45.738Z,12.98
2018-08-25T05:36:45.671Z,12.96
2018-08-25T05:37:45.410Z,12.94
2018-08-25T05:38:45.659Z,12.99
2018-08-25T05:39:45.395Z,13.03
2018-08-25T05:40:45.133Z,12.98
2018-08-25T05:41:45.380Z,13.03
2018-08-25T05:42:45.112Z,13.06
2018-08-25T05:43:45.624Z,13.06
2018-08-25T05:44:45.363Z,12.96
2018-08-25T05:45:45.353Z,13.06
2018-08-25T05:46:45.598Z,13.1
2018-08-25T05:47:45.588Z,13.1
2018-08-25T05:48:45.327Z,13.13
2018-08-25T05:49:45.579Z,13.03
2018-08-25T05:50:45.581Z,13.14
2018-08-25T05:51:45.316Z,13.14
2018-08-25T05:52:45.566Z,13.2
2018-08-25T05:53:45.544Z,13.24
2018-08-25T05:54:45.541Z,13.2
2018-08-25T05:55:45.541Z,13.2
2018-08-25T05:56:45.532Z,13.24
2018-08-25T05:57:45.698Z,13.27
2018-08-25T05:58:45.522Z,13.32
2018-08-25T05:59:45.512Z,13.36
2018-08-25T06:00:45.504Z,13.35
2018-08-25T06:01:45.235Z,13.31
2018-08-25T06:02:45.227Z,13.39
2018-08-25T06:03:45.476Z,13.45
2018-08-25T06:04:45.478Z,13.44
2018-08-25T06:05:45.463Z,13.42
2018-08-25T06:06:45.383Z,13.47
2018-08-25T06:07:45.188Z,13.5
2018-08-25T06:08:45.190Z,13.51
2018-08-25T06:09:45.484Z,13.58
2018-08-25T06:10:45.181Z,13.53
2018-08-25T06:11:45.420Z,13.75
2018-08-25T06:12:45.158Z,13.66
2018-08-25T06:13:45.156Z,13.69
2018-08-25T06:14:45.138Z,13.58
2018-08-25T06:15:45.136Z,13.7
2018-08-25T06:16:45.386Z,13.7
2018-08-25T06:17:45.638Z,13.72
2018-08-25T06:18:45.116Z,13.73
2018-08-25T06:19:45.364Z,13.75
2018-08-25T06:20:45.108Z,13.84
2018-08-25T06:21:45.350Z,13.88
2018-08-25T06:22:45.093Z,13.86
2018-08-25T06:23:45.335Z,13.94
2018-08-25T06:24:45.076Z,13.97
2018-08-25T06:25:45.329Z,14.05
2018-08-25T06:26:45.066Z,14.03
2018-08-25T06:27:45.314Z,14.15
2018-08-25T06:28:45.046Z,14.15
2018-08-25T06:29:45.185Z,14.24
2018-08-25T06:30:45.289Z,14.24
2018-08-25T06:31:45.028Z,14.31
2018-08-25T06:32:45.274Z,14.31
2018-08-25T06:33:45.273Z,14.46
2018-08-25T06:34:45.010Z,14.53
2018-08-25T06:35:45.259Z,14.6
2018-08-25T06:36:45.158Z,14.64
2018-08-25T06:37:44.988Z,14.87
2018-08-25T06:38:45.244Z,14.94
2018-08-25T06:39:45.237Z,15.05
2018-08-25T06:40:44.973Z,15.18
2018-08-25T06:41:45.004Z,15.18
2018-08-25T06:42:45.084Z,15.2
2018-08-25T06:43:45.160Z,15.38
2018-08-25T06:44:44.944Z,15.35
2018-08-25T06:45:45.201Z,15.26
2018-08-25T06:46:45.198Z,15.33
2018-08-25T06:47:45.187Z,15.44
2018-08-25T06:48:45.185Z,15.4
2018-08-25T06:49:45.172Z,15.44
2018-08-25T06:50:44.911Z,15.41
2018-08-25T06:51:44.905Z,15.41
2018-08-25T06:52:44.916Z,15.53
2018-08-25T06:53:44.899Z,15.52
2018-08-25T06:54:45.195Z,15.44
2018-08-25T06:55:45.143Z,15.34
2018-08-25T06:56:45.131Z,15.33
2018-08-25T06:57:45.135Z,15.4
2018-08-25T06:58:44.613Z,15.34
2018-08-25T06:59:45.288Z,15.41
2018-08-25T07:00:44.854Z,15.34
2018-08-25T07:01:44.851Z,15.3
2018-08-25T07:02:44.846Z,15.4
2018-08-25T07:03:45.095Z,15.38
2018-08-25T07:04:45.103Z,15.35
2018-08-25T07:05:45.091Z,15.37
2018-08-25T07:06:45.077Z,15.33
2018-08-25T07:07:44.824Z,15.38
2018-08-25T07:08:45.071Z,15.3
2018-08-25T07:09:45.064Z,15.4
2018-08-25T07:10:45.057Z,15.4
2018-08-25T07:11:45.053Z,15.44
2018-08-25T07:12:45.112Z,15.43
2018-08-25T07:13:45.046Z,15.47
2018-08-25T07:14:45.041Z,15.52
2018-08-25T07:15:44.776Z,15.56
2018-08-25T07:16:45.023Z,15.55
2018-08-25T07:17:44.765Z,15.41
2018-08-25T07:18:45.023Z,15.55
2018-08-25T07:19:45.009Z,15.52
2018-08-25T07:20:45.009Z,15.6
2018-08-25T07:21:45.004Z,15.55
2018-08-25T07:22:44.736Z,15.52
2018-08-25T07:23:44.988Z,15.53
2018-08-25T07:24:44.991Z,15.52
2018-08-25T07:25:45.048Z,15.59
2018-08-25T07:26:44.731Z,15.62
2018-08-25T07:27:44.972Z,15.51
2018-08-25T07:28:44.983Z,15.52
2018-08-25T07:29:44.445Z,15.43
2018-08-25T07:30:44.704Z,15.41
2018-08-25T07:31:44.955Z,15.4
2018-08-25T07:32:44.433Z,15.41
2018-08-25T07:33:44.424Z,15.45
2018-08-25T07:34:44.937Z,15.56
2018-08-25T07:35:44.677Z,15.68
2018-08-25T07:36:44.409Z,15.63
2018-08-25T07:37:44.924Z,15.63
2018-08-25T07:38:44.660Z,15.59
2018-08-25T07:39:44.913Z,15.74
2018-08-25T07:40:44.900Z,15.67
2018-08-25T07:41:44.645Z,15.73
2018-08-25T07:42:44.895Z,15.7
2018-08-25T07:43:44.897Z,15.67
2018-08-25T07:44:44.884Z,15.75
2018-08-25T07:45:44.880Z,15.8
2018-08-25T07:46:44.612Z,15.83
2018-08-25T07:47:44.613Z,15.92
2018-08-25T07:48:44.735Z,15.99
2018-08-25T07:49:44.768Z,16.02
2018-08-25T07:50:44.857Z,15.95
2018-08-25T07:51:44.597Z,16.02
2018-08-25T07:52:44.588Z,15.95
2018-08-25T07:53:44.941Z,16.04
2018-08-25T07:54:44.317Z,16.07
2018-08-25T07:55:44.831Z,16.1
2018-08-25T07:56:44.312Z,16.08
2018-08-25T07:57:44.561Z,16.07
2018-08-25T07:58:44.558Z,16.08
2018-08-25T07:59:44.295Z,16.18
2018-08-25T08:00:44.549Z,16.16
2018-08-25T08:01:44.288Z,16.27
2018-08-25T08:02:44.804Z,16.27
2018-08-25T08:03:44.799Z,16.32
2018-08-25T08:04:44.863Z,16.33
2018-08-25T08:05:44.940Z,16.27
2018-08-25T08:06:44.777Z,16.3
2018-08-25T08:07:44.777Z,16.3
2018-08-25T08:08:44.513Z,16.34
2018-08-25T08:09:44.774Z,16.29
2018-08-25T08:10:44.767Z,16.3
2018-08-25T08:11:44.834Z,16.37
2018-08-25T08:12:44.496Z,16.25
2018-08-25T08:13:44.747Z,16.32
2018-08-25T08:14:44.231Z,16.29
2018-08-25T08:15:44.758Z,16.27
2018-08-25T08:16:44.733Z,16.32
2018-08-25T08:17:44.729Z,16.32
2018-08-25T08:18:44.758Z,16.32
2018-08-25T08:19:44.456Z,16.21
2018-08-25T08:20:44.713Z,16.27
2018-08-25T08:21:44.705Z,16.27
2018-08-25T08:22:44.715Z,16.4
2018-08-25T08:23:44.699Z,16.47
2018-08-25T08:24:44.692Z,16.39
2018-08-25T08:25:44.439Z,16.34
2018-08-25T08:26:44.434Z,16.27
2018-08-25T08:27:44.422Z,16.37
2018-08-25T08:28:44.671Z,16.45
2018-08-25T08:29:44.672Z,16.63
2018-08-25T08:30:44.665Z,16.72
2018-08-25T08:31:44.672Z,16.92
2018-08-25T08:32:44.659Z,17
2018-08-25T08:33:44.756Z,17.18
2018-08-25T08:34:44.387Z,17.22
2018-08-25T08:35:44.651Z,17.5
2018-08-25T08:36:44.662Z,17.71
2018-08-25T08:37:44.124Z,17.81
2018-08-25T08:38:44.638Z,18.05
2018-08-25T08:39:44.843Z,18.03
2018-08-25T08:40:44.631Z,18.06
2018-08-25T08:41:44.619Z,18.02
2018-08-25T08:42:44.620Z,18.05
2018-08-25T08:43:44.359Z,17.98
2018-08-25T08:44:44.612Z,17.9
2018-08-25T08:45:44.607Z,17.87
2018-08-25T08:46:44.608Z,17.92
2018-08-25T08:47:44.755Z,18.02
2018-08-25T08:48:44.595Z,18.06
2018-08-25T08:49:51.924Z,18.06
2018-08-25T08:50:44.329Z,18.01
2018-08-25T08:51:44.585Z,17.77
2018-08-25T08:52:44.585Z,17.58
2018-08-25T08:53:44.579Z,17.6
2018-08-25T08:54:44.063Z,17.47
2018-08-25T08:55:44.578Z,17.49
2018-08-25T08:56:44.567Z,17.43
2018-08-25T08:57:44.563Z,17.45
2018-08-25T08:58:44.561Z,17.46
2018-08-25T08:59:44.562Z,17.47
2018-08-25T09:00:44.560Z,17.55
2018-08-25T09:01:44.551Z,17.8
2018-08-25T09:02:44.552Z,18.02
2018-08-25T09:03:44.288Z,18.2
2018-08-25T09:04:44.544Z,18.32
2018-08-25T09:05:44.540Z,18.36
2018-08-25T09:06:44.538Z,18.45
2018-08-25T09:07:44.535Z,18.38
2018-08-25T09:08:44.015Z,18.32
2018-08-25T09:09:44.266Z,18.2
2018-08-25T09:10:44.525Z,18.19
2018-08-25T09:11:44.741Z,18.01
2018-08-25T09:12:44.258Z,18.2
2018-08-25T09:13:44.521Z,18.13
2018-08-25T09:14:44.510Z,18.17
2018-08-25T09:15:44.503Z,18.06
2018-08-25T09:16:44.251Z,18.1
2018-08-25T09:17:44.249Z,18.11
2018-08-25T09:18:43.986Z,18.16
2018-08-25T09:19:44.502Z,18.26
2018-08-25T09:20:44.237Z,18.2
2018-08-25T09:21:44.490Z,18.19
2018-08-25T09:22:44.232Z,18.17
2018-08-25T09:23:44.482Z,18.1
2018-08-25T09:24:44.478Z,18.16
2018-08-25T09:25:44.482Z,18.06
2018-08-25T09:26:44.234Z,18.02
2018-08-25T09:27:44.474Z,18.06
2018-08-25T09:28:44.208Z,18.23
2018-08-25T09:29:44.204Z,18.17
2018-08-25T09:30:44.202Z,18.17
2018-08-25T09:31:44.463Z,18.2
2018-08-25T09:32:44.466Z,18.26
2018-08-25T09:33:44.455Z,18.41
2018-08-25T09:34:44.455Z,18.5
2018-08-25T09:35:44.595Z,18.54
2018-08-25T09:36:44.434Z,18.53
2018-08-25T09:37:44.197Z,18.66
2018-08-25T09:38:44.440Z,18.65
2018-08-25T09:39:44.438Z,18.6
2018-08-25T09:40:44.183Z,18.61
2018-08-25T09:41:44.661Z,18.57
2018-08-25T09:42:44.431Z,18.65
2018-08-25T09:43:44.172Z,18.57
2018-08-25T09:44:44.168Z,18.61
2018-08-25T09:45:43.906Z,18.72
2018-08-25T09:46:44.422Z,18.76
2018-08-25T09:47:44.161Z,18.79
2018-08-25T09:48:44.415Z,18.81
2018-08-25T09:49:44.158Z,18.75
2018-08-25T09:50:44.408Z,18.75
2018-08-25T09:51:44.408Z,18.65
2018-08-25T09:52:44.147Z,18.51
2018-08-25T09:53:44.406Z,18.36
2018-08-25T09:54:44.399Z,18.36
2018-08-25T09:55:44.138Z,18.23
2018-08-25T09:56:44.145Z,18.06
2018-08-25T09:57:44.137Z,17.84
2018-08-25T09:58:44.385Z,17.66
2018-08-25T09:59:44.384Z,17.57
2018-08-25T10:00:44.384Z,17.31
2018-08-25T10:01:44.384Z,17.15
2018-08-25T10:02:44.373Z,17.09
2018-08-25T10:03:44.118Z,17.09
2018-08-25T10:04:44.116Z,16.95
2018-08-25T10:05:44.114Z,16.84
2018-08-25T10:06:44.399Z,16.82
2018-08-25T10:07:44.108Z,16.7
2018-08-25T10:08:43.841Z,16.66
2018-08-25T10:09:44.351Z,16.55
2018-08-25T10:10:44.116Z,16.49
2018-08-25T10:11:44.348Z,16.63
2018-08-25T10:12:44.346Z,16.7
2018-08-25T10:13:44.336Z,16.67
2018-08-25T10:14:44.332Z,16.67
2018-08-25T10:15:44.331Z,16.58
2018-08-25T10:16:44.446Z,16.52
2018-08-25T10:17:44.067Z,16.51
2018-08-25T10:18:44.319Z,16.47
2018-08-25T10:19:44.319Z,16.47
2018-08-25T10:20:44.309Z,16.52
2018-08-25T10:21:44.309Z,16.36
2018-08-25T10:22:44.304Z,16.3
2018-08-25T10:23:44.736Z,16.32
2018-08-25T10:24:44.310Z,16.32
2018-08-25T10:25:44.032Z,16.22
2018-08-25T10:26:44.292Z,16.14
2018-08-25T10:27:44.035Z,16.14
2018-08-25T10:28:44.299Z,16
2018-08-25T10:29:44.278Z,16.04
2018-08-25T10:30:44.016Z,16.02
2018-08-25T10:31:44.325Z,15.86
2018-08-25T10:32:44.260Z,15.78
2018-08-25T10:33:44.256Z,15.89
2018-08-25T10:34:44.256Z,15.91
2018-08-25T10:35:44.117Z,15.99
2018-08-25T10:36:44.243Z,15.93
2018-08-25T10:37:43.992Z,16.13
2018-08-25T10:38:44.233Z,16.18
2018-08-25T10:39:44.234Z,16.13
2018-08-25T10:40:44.227Z,16.17
2018-08-25T10:41:44.103Z,16.17
2018-08-25T10:42:44.223Z,16.08
2018-08-25T10:43:44.215Z,16
2018-08-25T10:44:43.952Z,15.96
2018-08-25T10:45:43.945Z,15.89
2018-08-25T10:46:44.198Z,15.89
2018-08-25T10:47:43.939Z,15.75
2018-08-25T10:48:44.241Z,15.7
2018-08-25T10:49:44.186Z,15.65
2018-08-25T10:50:43.920Z,15.49
2018-08-25T10:51:44.172Z,15.47
2018-08-25T10:52:44.167Z,15.44
2018-08-25T10:53:44.164Z,15.41
2018-08-25T10:54:44.164Z,15.44
2018-08-25T10:55:43.896Z,15.35
2018-08-25T10:56:43.898Z,15.43
2018-08-25T10:57:44.143Z,15.27
2018-08-25T10:58:44.139Z,15.37
2018-08-25T10:59:44.140Z,15.31
2018-08-25T11:00:44.318Z,15.31
2018-08-25T11:01:44.122Z,15.26
2018-08-25T11:02:43.859Z,15.2
2018-08-25T11:03:43.599Z,15.23
2018-08-25T11:04:43.853Z,15.19
2018-08-25T11:05:44.104Z,15.23
2018-08-25T11:06:43.583Z,15.25
2018-08-25T11:07:43.833Z,15.08
2018-08-25T11:08:43.955Z,15.12
2018-08-25T11:09:43.821Z,15.04
2018-08-25T11:10:43.822Z,15.01
2018-08-25T11:11:43.821Z,15.04
2018-08-25T11:12:43.807Z,15.07
2018-08-25T11:13:44.067Z,14.97
2018-08-25T11:14:43.539Z,14.82
2018-08-25T11:15:43.793Z,14.93
2018-08-25T11:16:44.057Z,14.9
2018-08-25T11:17:44.058Z,14.86
2018-08-25T11:18:44.029Z,14.8
2018-08-25T11:19:44.035Z,14.74
2018-08-25T11:20:44.031Z,14.69
2018-08-25T11:21:43.503Z,14.75
2018-08-25T11:22:43.759Z,14.69
2018-08-25T11:23:43.556Z,14.67
2018-08-25T11:24:43.745Z,14.69
2018-08-25T11:25:43.991Z,14.71
2018-08-25T11:26:43.988Z,14.63
2018-08-25T11:27:43.987Z,14.63
2018-08-25T11:28:43.973Z,14.69
2018-08-25T11:29:43.712Z,14.64
2018-08-25T11:30:43.962Z,14.66
2018-08-25T11:31:44.016Z,14.66
2018-08-25T11:32:43.700Z,14.63
2018-08-25T11:33:43.689Z,14.66
2018-08-25T11:34:43.686Z,14.63
2018-08-25T11:35:43.938Z,14.67
2018-08-25T11:36:43.930Z,14.7
2018-08-25T11:37:43.885Z,14.67
2018-08-25T11:38:43.663Z,14.93
2018-08-25T11:39:43.656Z,15.01
2018-08-25T11:40:43.911Z,15.12
2018-08-25T11:41:43.908Z,15.38
2018-08-25T11:42:43.388Z,15.53
2018-08-25T11:43:43.893Z,15.74
2018-08-25T11:44:43.376Z,15.96
2018-08-25T11:45:43.880Z,16.21
2018-08-25T11:46:43.360Z,16.26
2018-08-25T11:47:43.879Z,16.3
2018-08-25T11:48:43.872Z,16.36
2018-08-25T11:49:43.858Z,16.42
2018-08-25T11:50:43.859Z,16.4
2018-08-25T11:51:43.588Z,16.32
2018-08-25T11:52:43.853Z,16.32
2018-08-25T11:53:43.837Z,16.39
2018-08-25T11:54:43.840Z,16.39
2018-08-25T11:55:43.839Z,16.42
2018-08-25T11:56:43.833Z,16.34
2018-08-25T11:57:43.566Z,16.44
2018-08-25T11:58:43.826Z,16.36
2018-08-25T11:59:43.817Z,16.44
2018-08-25T12:00:43.553Z,16.45
2018-08-25T12:01:43.800Z,16.4
2018-08-25T12:02:43.284Z,16.44
2018-08-25T12:03:44.005Z,16.47
2018-08-25T12:04:43.537Z,16.48
2018-08-25T12:05:43.785Z,16.47
2018-08-25T12:06:43.524Z,16.48
2018-08-25T12:07:43.786Z,16.49
2018-08-25T12:08:43.518Z,16.48
2018-08-25T12:09:44.049Z,16.33
2018-08-25T12:10:43.510Z,16.32
2018-08-25T12:11:43.506Z,16.34
2018-08-25T12:12:43.757Z,16.3
2018-08-25T12:13:43.500Z,16.14
2018-08-25T12:14:43.489Z,16.18
2018-08-25T12:15:43.742Z,16.02
2018-08-25T12:16:43.757Z,15.96
2018-08-25T12:17:43.733Z,15.98
2018-08-25T12:18:43.773Z,15.99
2018-08-25T12:19:43.727Z,15.99
2018-08-25T12:20:43.712Z,15.99
2018-08-25T12:21:43.716Z,16.04
2018-08-25T12:22:43.713Z,16.06
2018-08-25T12:23:43.718Z,16
2018-08-25T12:24:43.703Z,16.06
2018-08-25T12:25:43.690Z,16.07
2018-08-25T12:26:43.453Z,16.06
2018-08-25T12:27:43.683Z,16.07
2018-08-25T12:28:43.680Z,16.07
2018-08-25T12:29:43.676Z,16.22
2018-08-25T12:30:43.327Z,16.14
2018-08-25T12:31:43.670Z,16.22
2018-08-25T12:32:43.664Z,16.37
2018-08-25T12:33:43.849Z,16.26
2018-08-25T12:34:43.652Z,16.3
2018-08-25T12:35:43.392Z,16.32
2018-08-25T12:36:43.640Z,16.29
2018-08-25T12:37:43.384Z,16.37
2018-08-25T12:38:43.125Z,16.37
2018-08-25T12:39:43.768Z,16.37
2018-08-25T12:40:43.113Z,16.29
2018-08-25T12:41:43.628Z,16.32
2018-08-25T12:42:43.102Z,16.36
2018-08-25T12:43:43.774Z,16.13
2018-08-25T12:44:43.350Z,16.16
2018-08-25T12:45:43.348Z,16.14
2018-08-25T12:46:43.600Z,16.02
2018-08-25T12:47:43.344Z,15.98
2018-08-25T12:48:43.442Z,15.89
2018-08-25T12:49:43.582Z,15.84
2018-08-25T12:50:43.583Z,15.93
2018-08-25T12:51:43.833Z,15.86
2018-08-25T12:52:43.577Z,15.93
2018-08-25T12:53:43.564Z,15.86
2018-08-25T12:54:43.565Z,15.84
2018-08-25T12:55:43.563Z,15.91
2018-08-25T12:56:43.555Z,15.71